Charallave, Venezuela
Current Conditions -  °F | °C
As of 2:00 PM on Saturday 25 Oct 2014 (Local Time) from SVMI Reporting Station
Scattered Clouds Scattered Clouds  
Wind Chill: 84°   Ceiling: Unl
Heat Index: 91°   Visibility: 6mi
Dew Point: 73°   Wind: 2mph
Humidity: 70%   Direction: 360°N
Pressure: 29.83"   Gusts: NA
Location:  10.24°N, 66.86°W
Report Text: SVMI 251800Z 36002KT 9999 SCT016 29/23 Q1010 NOSIG
Loading
Personal Weather Stations






























Interactive Weather Map
Tropical Storm Tracking
New forecast layout! Learn more

10-Day Weather Forecast

Advertisements
Track Severe Weather on mobile